createdAt,value
2023-02-13T00:00:21.803Z,95953.41
2023-02-13T00:02:48.381Z,95956.47
2023-02-13T00:05:15.356Z,95951.56
2023-02-13T00:07:42.000Z,95955.25
2023-02-13T00:10:09.398Z,95945.66
2023-02-13T00:12:36.377Z,95944.16
2023-02-13T00:15:03.937Z,95951.16
2023-02-13T00:17:30.820Z,95944.53
2023-02-13T00:19:57.428Z,95948.66
2023-02-13T00:22:24.481Z,95954.38
2023-02-13T00:24:51.176Z,95958.13
2023-02-13T00:27:18.114Z,95960.63
2023-02-13T00:29:44.749Z,95960.28
2023-02-13T00:32:11.656Z,95964.28
2023-02-13T00:34:38.400Z,95958.16
2023-02-13T00:37:05.078Z,95957.25
2023-02-13T00:39:31.820Z,95963.16
2023-02-13T00:41:58.460Z,95960.69
2023-02-13T00:44:25.196Z,95964.56
2023-02-13T00:46:51.816Z,95956.91
2023-02-13T00:49:18.477Z,95964.47
2023-02-13T00:51:45.283Z,95962.53
2023-02-13T00:54:11.987Z,95960.81
2023-02-13T00:56:38.808Z,95953.66
2023-02-13T00:59:05.551Z,95959.09
2023-02-13T01:01:32.355Z,95958.78
2023-02-13T01:03:59.410Z,95951.63
2023-02-13T01:06:26.251Z,95958.69
2023-02-13T01:08:52.919Z,95952.34
2023-02-13T01:11:19.769Z,95950.13
2023-02-13T01:13:46.776Z,95952.78
2023-02-13T01:16:16.025Z,95950.41
2023-02-13T01:18:42.869Z,95946.53
2023-02-13T01:21:16.485Z,95949.50
2023-02-13T01:23:43.336Z,95942.78
2023-02-13T01:26:13.855Z,95934.59
2023-02-13T01:28:40.618Z,95939.69
2023-02-13T01:31:07.421Z,95939.50
2023-02-13T01:33:36.192Z,95930.41
2023-02-13T01:36:10.031Z,95939.31
2023-02-13T01:38:36.840Z,95933.09
2023-02-13T01:41:03.637Z,95931.56
2023-02-13T01:43:51.928Z,95933.00
2023-02-13T01:46:23.623Z,95940.13
2023-02-13T01:48:51.767Z,95938.19
2023-02-13T01:51:22.485Z,95934.28
2023-02-13T01:53:53.819Z,95934.81
2023-02-13T01:56:42.957Z,95927.88
2023-02-13T01:59:13.544Z,95928.06
2023-02-13T02:01:40.576Z,95926.44
2023-02-13T02:04:11.176Z,95921.13
2023-02-13T02:06:43.397Z,95913.47
2023-02-13T02:09:17.002Z,95920.53
2023-02-13T02:12:11.659Z,95920.75
2023-02-13T02:14:39.810Z,95918.31
2023-02-13T02:17:06.617Z,95918.28
2023-02-13T02:20:02.356Z,95916.47
2023-02-13T02:22:38.035Z,95911.06
2023-02-13T02:25:38.361Z,95913.41
2023-02-13T02:28:11.788Z,95921.28
2023-02-13T02:31:16.731Z,95921.78
2023-02-13T02:34:11.022Z,95921.84
2023-02-13T02:36:50.092Z,95910.75
2023-02-13T02:39:25.887Z,95919.41
2023-02-13T02:42:00.110Z,95916.13
2023-02-13T02:44:48.438Z,95920.72
2023-02-13T02:47:46.280Z,95918.88
2023-02-13T02:50:31.791Z,95921.78
2023-02-13T02:53:05.245Z,95925.31
2023-02-13T02:55:42.617Z,95921.44
2023-02-13T02:58:32.784Z,95920.13
2023-02-13T03:01:18.861Z,95922.88
2023-02-13T03:04:05.693Z,95925.31
2023-02-13T03:06:55.356Z,95924.22
2023-02-13T03:09:50.854Z,95923.28
2023-02-13T03:12:40.658Z,95927.75
2023-02-13T03:15:07.930Z,95916.94
2023-02-13T03:17:53.145Z,95925.63
2023-02-13T03:20:58.892Z,95923.19
2023-02-13T03:23:46.478Z,95924.59
2023-02-13T03:26:15.999Z,95924.59
2023-02-13T03:29:07.557Z,95922.66
2023-02-13T03:31:49.935Z,95924.41
2023-02-13T03:34:21.740Z,95927.63
2023-02-13T03:37:22.115Z,95931.09
2023-02-13T03:40:01.311Z,95922.72
2023-02-13T03:42:37.682Z,95922.34
2023-02-13T03:45:42.182Z,95916.66
2023-02-13T03:48:32.106Z,95925.00
2023-02-13T03:51:00.148Z,95924.09
2023-02-13T03:53:30.099Z,95914.19
2023-02-13T03:56:17.163Z,95920.28
2023-02-13T03:59:06.330Z,95924.00
2023-02-13T04:01:35.446Z,95924.41
2023-02-13T04:04:18.274Z,95918.69
2023-02-13T04:06:52.694Z,95907.13
2023-02-13T04:09:19.424Z,95916.81
2023-02-13T04:12:01.383Z,95913.38
2023-02-13T04:14:31.954Z,95909.63
2023-02-13T04:17:05.444Z,95912.28
2023-02-13T04:19:33.414Z,95908.31
2023-02-13T04:22:02.022Z,95913.19
2023-02-13T04:24:29.083Z,95909.81
2023-02-13T04:26:56.137Z,95912.97
2023-02-13T04:29:23.599Z,95912.16
2023-02-13T04:31:50.759Z,95910.69
2023-02-13T04:34:17.777Z,95920.09
2023-02-13T04:36:44.504Z,95909.16
2023-02-13T04:39:11.787Z,95908.91
2023-02-13T04:41:38.544Z,95915.81
2023-02-13T04:44:05.420Z,95915.81
2023-02-13T04:46:32.197Z,95916.91
2023-02-13T04:48:58.929Z,95919.28
2023-02-13T04:51:25.647Z,95921.34
2023-02-13T04:53:52.399Z,95917.66
2023-02-13T04:56:20.071Z,95922.56
2023-02-13T04:58:46.972Z,95920.00
2023-02-13T05:01:15.138Z,95919.28
2023-02-13T05:03:42.046Z,95919.50
2023-02-13T05:06:09.010Z,95919.00
2023-02-13T05:08:35.765Z,95923.56
2023-02-13T05:11:02.560Z,95920.41
2023-02-13T05:13:29.461Z,95922.34
2023-02-13T05:15:56.374Z,95927.88
2023-02-13T05:18:23.249Z,95925.13
2023-02-13T05:21:10.359Z,95922.06
2023-02-13T05:23:37.490Z,95924.91
2023-02-13T05:26:04.321Z,95916.53
2023-02-13T05:28:49.614Z,95919.81
2023-02-13T05:31:16.327Z,95925.28
2023-02-13T05:33:43.090Z,95924.81
2023-02-13T05:36:09.813Z,95924.81
2023-02-13T05:38:36.701Z,95924.59
2023-02-13T05:41:03.416Z,95927.94
2023-02-13T05:43:30.341Z,95934.41
2023-02-13T05:46:07.703Z,95930.94
2023-02-13T05:48:34.572Z,95936.13
2023-02-13T05:51:01.453Z,95932.34
2023-02-13T05:53:29.925Z,95932.56
2023-02-13T05:55:56.844Z,95941.03
2023-02-13T05:58:23.755Z,95940.28
2023-02-13T06:00:50.523Z,95936.63
2023-02-13T06:03:17.214Z,95937.25
2023-02-13T06:05:43.927Z,95939.28
2023-02-13T06:08:10.642Z,95946.13
2023-02-13T06:10:37.350Z,95949.50
2023-02-13T06:13:04.056Z,95949.50
2023-02-13T06:15:30.855Z,95949.69
2023-02-13T06:17:57.795Z,95952.75
2023-02-13T06:20:24.556Z,95954.38
2023-02-13T06:22:52.450Z,95949.16
2023-02-13T06:25:19.605Z,95957.31
2023-02-13T06:27:46.598Z,95962.28
2023-02-13T06:30:14.102Z,95964.88
2023-02-13T06:32:40.893Z,95959.69
2023-02-13T06:35:08.169Z,95958.06
2023-02-13T06:37:35.056Z,95961.31
2023-02-13T06:40:02.856Z,95958.44
2023-02-13T06:42:29.674Z,95961.38
2023-02-13T06:44:56.458Z,95956.28
2023-02-13T06:47:23.225Z,95967.19
2023-02-13T06:49:49.929Z,95960.34
2023-02-13T06:52:16.940Z,95962.28
2023-02-13T06:54:47.629Z,95963.69
2023-02-13T06:57:15.419Z,95956.47
2023-02-13T06:59:42.632Z,95962.38
2023-02-13T07:02:11.417Z,95961.78
2023-02-13T07:04:38.406Z,95970.34
2023-02-13T07:07:05.576Z,95967.59
2023-02-13T07:09:32.752Z,95967.81
2023-02-13T07:12:03.406Z,95972.13
2023-02-13T07:14:30.189Z,95971.47
2023-02-13T07:16:57.627Z,95978.41
2023-02-13T07:19:24.311Z,95968.50
2023-02-13T07:21:51.176Z,95973.31
2023-02-13T07:24:17.918Z,95969.53
2023-02-13T07:26:44.691Z,95970.22
2023-02-13T07:29:12.431Z,95972.69
2023-02-13T07:31:39.997Z,95971.78
2023-02-13T07:34:07.418Z,95971.88
2023-02-13T07:36:34.279Z,95968.63
2023-02-13T07:39:01.046Z,95961.97
2023-02-13T07:41:27.857Z,95972.75
2023-02-13T07:43:55.115Z,95967.03
2023-02-13T07:46:21.975Z,95967.31
2023-02-13T07:48:48.767Z,95957.34
2023-02-13T07:51:16.528Z,95960.81
2023-02-13T07:53:43.426Z,95961.72
2023-02-13T07:56:11.433Z,95946.81
2023-02-13T07:58:40.653Z,95955.03
2023-02-13T08:01:09.011Z,95951.13
2023-02-13T08:03:36.094Z,95956.72
2023-02-13T08:06:03.290Z,95958.09
2023-02-13T08:08:30.028Z,95946.16
2023-02-13T08:11:15.774Z,95945.97
2023-02-13T08:13:43.629Z,95956.25
2023-02-13T08:16:10.373Z,95945.75
2023-02-13T08:18:37.097Z,95932.00
2023-02-13T08:21:04.070Z,95949.06
2023-02-13T08:23:30.934Z,95936.56
2023-02-13T08:26:01.409Z,95954.84
2023-02-13T08:28:31.275Z,95949.06
2023-02-13T08:30:58.130Z,95956.19
2023-02-13T08:33:25.051Z,95951.69
2023-02-13T08:35:51.779Z,95955.53
2023-02-13T08:38:18.535Z,95958.78
2023-02-13T08:40:45.268Z,95956.47
2023-02-13T08:43:11.966Z,95955.97
2023-02-13T08:45:38.771Z,95958.56
2023-02-13T08:48:05.661Z,95958.09
2023-02-13T08:50:32.427Z,95959.97
2023-02-13T08:52:59.827Z,95966.69
2023-02-13T08:55:28.300Z,95956.78
2023-02-13T08:57:55.029Z,95959.91
2023-02-13T09:00:22.089Z,95961.53
2023-02-13T09:02:48.875Z,95962.13
2023-02-13T09:05:15.791Z,95959.03
2023-02-13T09:07:42.553Z,95959.38
2023-02-13T09:10:09.649Z,95954.50
2023-02-13T09:12:36.329Z,95953.91
2023-02-13T09:15:03.311Z,95950.53
2023-02-13T09:17:29.995Z,95960.06
2023-02-13T09:19:56.873Z,95945.09
2023-02-13T09:22:23.609Z,95955.66
2023-02-13T09:24:50.351Z,95957.16
2023-02-13T09:27:17.035Z,95953.81
2023-02-13T09:29:43.775Z,95951.69
2023-02-13T09:32:10.544Z,95958.84
2023-02-13T09:34:37.383Z,95965.69
2023-02-13T09:37:04.185Z,95966.41
2023-02-13T09:39:30.918Z,95963.63
2023-02-13T09:41:58.864Z,95957.16
2023-02-13T09:44:38.468Z,95968.03
2023-02-13T09:47:26.515Z,95962.31
2023-02-13T09:49:56.244Z,95974.06
2023-02-13T09:52:23.085Z,95967.78
2023-02-13T09:54:49.745Z,95971.63
2023-02-13T09:57:31.601Z,95956.84
2023-02-13T10:00:20.860Z,95968.25
2023-02-13T10:02:59.737Z,95963.34
2023-02-13T10:05:57.884Z,95959.41
2023-02-13T10:08:38.301Z,95949.88
2023-02-13T10:11:21.152Z,95953.41
2023-02-13T10:13:47.844Z,95956.38
2023-02-13T10:16:27.966Z,95953.56
2023-02-13T10:19:19.371Z,95948.63
2023-02-13T10:21:53.394Z,95937.25
2023-02-13T10:24:28.422Z,95951.88
2023-02-13T10:26:55.771Z,95947.94
2023-02-13T10:30:07.171Z,95953.47
2023-02-13T10:32:52.321Z,95955.88
2023-02-13T10:35:26.801Z,95963.88
2023-02-13T10:37:55.827Z,95954.25
2023-02-13T10:40:29.044Z,95957.72
2023-02-13T10:43:09.911Z,95962.94
2023-02-13T10:45:59.563Z,95956.56
2023-02-13T10:48:29.743Z,95951.94
2023-02-13T10:51:13.387Z,95949.56
2023-02-13T10:54:19.306Z,95939.56
2023-02-13T10:57:13.336Z,95935.81
2023-02-13T10:59:57.865Z,95937.50
2023-02-13T11:02:37.082Z,95945.00
2023-02-13T11:05:24.822Z,95935.34
2023-02-13T11:07:51.606Z,95917.09
2023-02-13T11:10:26.228Z,95932.84
2023-02-13T11:12:53.939Z,95938.22
2023-02-13T11:15:27.983Z,95935.50
2023-02-13T11:18:00.933Z,95925.59
2023-02-13T11:20:37.129Z,95931.94
2023-02-13T11:23:16.005Z,95924.88
2023-02-13T11:25:53.854Z,95927.03
2023-02-13T11:28:21.664Z,95917.47
2023-02-13T11:30:49.127Z,95915.16
2023-02-13T11:33:18.704Z,95914.19
2023-02-13T11:35:46.876Z,95911.44
2023-02-13T11:38:22.656Z,95909.28
2023-02-13T11:41:09.901Z,95908.22
2023-02-13T11:43:51.448Z,95906.84
2023-02-13T11:46:20.988Z,95900.75
2023-02-13T11:49:00.856Z,95901.72
2023-02-13T11:51:40.528Z,95914.31
2023-02-13T11:54:09.829Z,95907.28
2023-02-13T11:57:04.041Z,95911.75
2023-02-13T11:59:40.080Z,95905.88
2023-02-13T12:02:27.709Z,95905.66
2023-02-13T12:05:21.434Z,95909.38
2023-02-13T12:07:48.744Z,95901.78
2023-02-13T12:10:15.465Z,95905.88
2023-02-13T12:12:47.445Z,95895.44
2023-02-13T12:15:23.058Z,95900.09
2023-02-13T12:18:08.681Z,95893.03
2023-02-13T12:20:44.304Z,95887.66
2023-02-13T12:23:43.565Z,95888.44
2023-02-13T12:26:32.855Z,95881.00
2023-02-13T12:29:14.459Z,95889.28
2023-02-13T12:32:20.979Z,95873.50
2023-02-13T12:35:01.864Z,95881.75
2023-02-13T12:37:53.529Z,95875.00
2023-02-13T12:40:58.539Z,95871.59
2023-02-13T12:43:47.021Z,95872.91
2023-02-13T12:46:29.970Z,95872.34
2023-02-13T12:49:02.881Z,95873.50
2023-02-13T12:51:36.433Z,95867.06
2023-02-13T12:54:08.434Z,95872.81
2023-02-13T12:57:04.275Z,95866.88
2023-02-13T13:00:12.605Z,95854.63
2023-02-13T13:03:05.791Z,95848.81
2023-02-13T13:05:50.797Z,95851.09
2023-02-13T13:08:43.957Z,95844.63
2023-02-13T13:11:19.460Z,95849.63
2023-02-13T13:14:04.459Z,95851.88
2023-02-13T13:16:45.493Z,95847.97
2023-02-13T13:19:20.364Z,95847.31
2023-02-13T13:21:53.557Z,95841.16
2023-02-13T13:24:35.192Z,95845.34
2023-02-13T13:27:02.474Z,95838.88
2023-02-13T13:29:36.075Z,95851.16
2023-02-13T13:32:07.515Z,95846.34
2023-02-13T13:34:35.878Z,95846.53
2023-02-13T13:37:14.640Z,95845.06
2023-02-13T13:39:44.537Z,95851.19
2023-02-13T13:42:41.034Z,95852.34
2023-02-13T13:45:52.255Z,95849.13
2023-02-13T13:48:31.122Z,95851.88
2023-02-13T13:50:58.281Z,95852.50
2023-02-13T13:53:25.654Z,95853.75
2023-02-13T13:56:18.391Z,95855.53
2023-02-13T13:58:46.552Z,95852.78
2023-02-13T14:01:20.430Z,95859.94
2023-02-13T14:03:52.352Z,95855.28
2023-02-13T14:06:22.418Z,95858.81
2023-02-13T14:08:49.691Z,95859.66
2023-02-13T14:11:25.569Z,95853.72
2023-02-13T14:13:52.570Z,95861.56
2023-02-13T14:16:45.365Z,95852.66
2023-02-13T14:19:24.799Z,95853.25
2023-02-13T14:21:51.817Z,95851.75
2023-02-13T14:24:19.814Z,95851.66
2023-02-13T14:27:05.235Z,95841.38
2023-02-13T14:29:33.584Z,95848.16
2023-02-13T14:32:07.416Z,95818.81
2023-02-13T14:34:39.102Z,95837.66
2023-02-13T14:37:20.898Z,95832.13
2023-02-13T14:40:15.995Z,95832.41
2023-02-13T14:42:45.090Z,95834.06
2023-02-13T14:45:17.046Z,95830.16
2023-02-13T14:47:56.851Z,95825.97
2023-02-13T14:50:53.179Z,95818.69
2023-02-13T14:53:27.354Z,95804.75
2023-02-13T14:56:04.627Z,95814.56
2023-02-13T14:58:33.766Z,95807.66
2023-02-13T15:01:15.213Z,95802.84
2023-02-13T15:03:54.813Z,95807.94
2023-02-13T15:06:33.237Z,95801.28
2023-02-13T15:09:02.446Z,95797.06
2023-02-13T15:11:42.964Z,95797.81
2023-02-13T15:14:39.206Z,95802.59
2023-02-13T15:17:16.412Z,95808.63
2023-02-13T15:19:48.694Z,95804.34
2023-02-13T15:22:33.491Z,95809.38
2023-02-13T15:25:01.443Z,95794.22
2023-02-13T15:27:30.854Z,95804.34
2023-02-13T15:30:01.830Z,95799.06
2023-02-13T15:32:32.385Z,95806.31
2023-02-13T15:34:59.460Z,95805.72
2023-02-13T15:37:30.048Z,95802.38
2023-02-13T15:39:56.944Z,95802.69
2023-02-13T15:42:23.785Z,95800.53
2023-02-13T15:44:53.317Z,95799.84
2023-02-13T15:47:27.874Z,95799.31
2023-02-13T15:49:54.828Z,95795.94
2023-02-13T15:52:32.448Z,95790.41
2023-02-13T15:54:59.388Z,95798.38
2023-02-13T15:57:27.146Z,95800.94
2023-02-13T15:59:55.882Z,95795.97
2023-02-13T16:02:34.556Z,95797.88
2023-02-13T16:05:01.875Z,95800.44
2023-02-13T16:07:30.684Z,95803.13
2023-02-13T16:10:36.634Z,95806.94
2023-02-13T16:13:08.027Z,95812.84
2023-02-13T16:15:36.562Z,95814.06
2023-02-13T16:18:06.374Z,95812.69
2023-02-13T16:20:34.370Z,95812.13
2023-02-13T16:23:16.936Z,95809.28
2023-02-13T16:25:44.030Z,95815.22
2023-02-13T16:28:17.759Z,95811.16
2023-02-13T16:30:46.594Z,95819.38
2023-02-13T16:33:16.233Z,95814.53
2023-02-13T16:36:01.047Z,95820.19
2023-02-13T16:38:36.469Z,95822.50
2023-02-13T16:41:28.745Z,95826.53
2023-02-13T16:44:02.726Z,95840.44
2023-02-13T16:46:32.490Z,95834.94
2023-02-13T16:49:02.361Z,95827.31
2023-02-13T16:51:37.882Z,95835.41
2023-02-13T16:54:12.257Z,95838.34
2023-02-13T16:57:06.540Z,95839.59
2023-02-13T16:59:33.259Z,95840.91
2023-02-13T17:02:19.562Z,95850.63
2023-02-13T17:04:50.551Z,95846.66
2023-02-13T17:07:23.595Z,95840.53
2023-02-13T17:09:58.217Z,95843.84
2023-02-13T17:12:25.987Z,95851.22
2023-02-13T17:14:53.202Z,95848.91
2023-02-13T17:17:22.539Z,95846.91
2023-02-13T17:19:49.771Z,95846.16
2023-02-13T17:22:19.404Z,95847.38
2023-02-13T17:24:46.124Z,95852.88
2023-02-13T17:27:12.849Z,95857.75
2023-02-13T17:29:39.621Z,95860.91
2023-02-13T17:32:06.478Z,95852.19
2023-02-13T17:34:33.153Z,95852.06
2023-02-13T17:37:00.284Z,95858.41
2023-02-13T17:39:27.018Z,95862.59
2023-02-13T17:41:53.795Z,95868.53
2023-02-13T17:44:20.796Z,95871.22
2023-02-13T17:46:47.490Z,95873.09
2023-02-13T17:49:15.241Z,95876.13
2023-02-13T17:51:42.374Z,95879.84
2023-02-13T17:54:11.829Z,95880.19
2023-02-13T17:56:38.619Z,95877.97
2023-02-13T17:59:05.389Z,95875.06
2023-02-13T18:01:32.167Z,95880.19
2023-02-13T18:03:59.015Z,95883.56
2023-02-13T18:06:25.747Z,95886.25
2023-02-13T18:08:52.477Z,95884.75
2023-02-13T18:11:19.436Z,95888.47
2023-02-13T18:13:48.526Z,95887.88
2023-02-13T18:16:17.249Z,95892.19
2023-02-13T18:18:43.997Z,95900.13
2023-02-13T18:21:12.611Z,95898.47
2023-02-13T18:23:40.178Z,95891.72
2023-02-13T18:26:09.251Z,95882.28
2023-02-13T18:28:36.380Z,95866.38
2023-02-13T18:31:03.333Z,95874.97
2023-02-13T18:33:30.126Z,95884.38
2023-02-13T18:36:01.615Z,95886.84
2023-02-13T18:38:28.719Z,95887.09
2023-02-13T18:40:55.888Z,95887.88
2023-02-13T18:43:22.829Z,95890.53
2023-02-13T18:45:49.646Z,95891.72
2023-02-13T18:48:16.509Z,95892.75
2023-02-13T18:50:44.925Z,95886.56
2023-02-13T18:53:11.923Z,95890.75
2023-02-13T18:55:38.577Z,95886.59
2023-02-13T18:58:05.315Z,95889.72
2023-02-13T19:00:32.167Z,95886.84
2023-02-13T19:02:59.567Z,95886.34
2023-02-13T19:05:26.529Z,95885.56
2023-02-13T19:07:53.379Z,95900.22
2023-02-13T19:10:20.172Z,95903.91
2023-02-13T19:12:46.825Z,95902.03
2023-02-13T19:15:13.520Z,95903.94
2023-02-13T19:17:40.224Z,95901.41
2023-02-13T19:20:07.630Z,95908.78
2023-02-13T19:22:34.316Z,95909.50
2023-02-13T19:25:02.301Z,95902.75
2023-02-13T19:27:28.986Z,95902.97
2023-02-13T19:29:55.591Z,95904.16
2023-02-13T19:32:22.258Z,95906.41
2023-02-13T19:34:48.957Z,95911.84
2023-02-13T19:37:15.628Z,95914.19
2023-02-13T19:39:42.261Z,95911.81
2023-02-13T19:42:08.854Z,95917.75
2023-02-13T19:44:35.589Z,95920.44
2023-02-13T19:47:02.238Z,95911.25
2023-02-13T19:49:28.913Z,95923.84
2023-02-13T19:51:55.562Z,95923.88
2023-02-13T19:54:22.199Z,95923.09
2023-02-13T19:56:48.983Z,95906.91
2023-02-13T19:59:15.602Z,95916.50
2023-02-13T20:01:45.842Z,95919.72
2023-02-13T20:04:12.608Z,95931.81
2023-02-13T20:06:39.345Z,95924.69
2023-02-13T20:09:09.865Z,95925.69
2023-02-13T20:11:37.222Z,95923.84
2023-02-13T20:14:05.674Z,95914.25
2023-02-13T20:16:35.427Z,95906.81
2023-02-13T20:19:11.585Z,95903.38
2023-02-13T20:21:39.187Z,95910.50
2023-02-13T20:24:06.132Z,95909.88
2023-02-13T20:26:33.728Z,95918.81
2023-02-13T20:29:00.385Z,95913.97
2023-02-13T20:31:29.308Z,95911.72
2023-02-13T20:33:56.357Z,95897.13
2023-02-13T20:36:24.977Z,95898.75
2023-02-13T20:38:54.390Z,95908.59
2023-02-13T20:41:23.814Z,95908.19
2023-02-13T20:43:50.693Z,95903.50
2023-02-13T20:46:18.417Z,95898.16
2023-02-13T20:48:48.415Z,95896.31
2023-02-13T20:51:16.541Z,95894.53
2023-02-13T20:53:44.241Z,95901.97
2023-02-13T20:56:16.356Z,95904.53
2023-02-13T20:58:44.348Z,95899.78
2023-02-13T21:01:16.308Z,95897.63
2023-02-13T21:03:43.819Z,95895.41
2023-02-13T21:06:11.822Z,95895.59
2023-02-13T21:08:38.550Z,95898.06
2023-02-13T21:11:07.188Z,95890.41
2023-02-13T21:13:34.833Z,95885.38
2023-02-13T21:16:07.192Z,95892.94
2023-02-13T21:18:34.566Z,95893.66
2023-02-13T21:21:01.694Z,95901.13
2023-02-13T21:23:28.404Z,95880.94
2023-02-13T21:25:55.104Z,95894.47
2023-02-13T21:28:21.913Z,95887.91
2023-02-13T21:30:48.621Z,95891.78
2023-02-13T21:33:15.290Z,95879.16
2023-02-13T21:35:41.976Z,95884.41
2023-02-13T21:38:08.815Z,95888.91
2023-02-13T21:40:35.565Z,95883.72
2023-02-13T21:43:02.218Z,95885.16
2023-02-13T21:45:28.975Z,95887.91
2023-02-13T21:47:56.667Z,95883.13
2023-02-13T21:50:23.809Z,95877.72
2023-02-13T21:52:50.425Z,95895.06
2023-02-13T21:55:17.112Z,95901.56
2023-02-13T21:57:43.701Z,95911.56
2023-02-13T22:00:11.053Z,95904.94
2023-02-13T22:02:38.675Z,95907.09
2023-02-13T22:05:05.720Z,95909.34
2023-02-13T22:07:32.445Z,95907.09
2023-02-13T22:09:59.110Z,95908.81
2023-02-13T22:12:25.664Z,95909.81
2023-02-13T22:14:54.534Z,95910.38
2023-02-13T22:17:22.298Z,95906.25
2023-02-13T22:19:49.000Z,95898.03
2023-02-13T22:22:15.878Z,95896.38
2023-02-13T22:24:42.522Z,95889.16
2023-02-13T22:27:09.090Z,95896.97
2023-02-13T22:29:35.885Z,95900.88
2023-02-13T22:32:02.592Z,95888.13
2023-02-13T22:34:29.322Z,95900.06
2023-02-13T22:36:55.912Z,95885.38
2023-02-13T22:39:22.558Z,95881.09
2023-02-13T22:41:49.165Z,95885.66
2023-02-13T22:44:15.809Z,95882.00
2023-02-13T22:46:42.531Z,95895.47
2023-02-13T22:49:09.245Z,95899.13
2023-02-13T22:51:36.579Z,95891.06
2023-02-13T22:54:04.238Z,95910.00
2023-02-13T22:56:31.508Z,95910.16
2023-02-13T22:58:58.443Z,95909.72
2023-02-13T23:01:26.694Z,95917.88
2023-02-13T23:03:53.773Z,95909.63
2023-02-13T23:06:21.875Z,95908.28
2023-02-13T23:08:55.073Z,95899.72
2023-02-13T23:11:44.983Z,95895.88
2023-02-13T23:14:11.987Z,95897.31
2023-02-13T23:16:58.206Z,95904.25
2023-02-13T23:19:25.584Z,95894.25
2023-02-13T23:21:52.209Z,95894.44
2023-02-13T23:24:19.038Z,95898.53
2023-02-13T23:26:45.744Z,95910.22
2023-02-13T23:29:12.317Z,95906.16
2023-02-13T23:31:39.037Z,95918.84
2023-02-13T23:34:05.682Z,95908.91
2023-02-13T23:36:32.394Z,95906.44
2023-02-13T23:38:58.990Z,95899.53
2023-02-13T23:41:25.638Z,95900.75
2023-02-13T23:43:52.228Z,95895.03
2023-02-13T23:46:19.054Z,95903.28
2023-02-13T23:48:46.304Z,95902.75
2023-02-13T23:51:13.049Z,95893.53
2023-02-13T23:53:39.821Z,95888.09
2023-02-13T23:56:07.008Z,95890.53
2023-02-13T23:58:33.605Z,95904.75
